Layland, West Virginia
Current Conditions -  °F | °C
As of 8:51 AM on Monday 24 Nov 2014 (Local Time) from KBKW Reporting Station
Scattered Clouds Scattered Clouds  
Wind Chill: 58°   Ceiling: Unl
Heat Index: 58°   Visibility: 10mi
Dew Point: 46°   Wind: 10mph
Humidity: 65%   Direction: 200°SSW
Pressure: 29.65"   Gusts: 22mph
Location:  37.9°N, 80.99°W
Report Text: KBKW 241351Z AUTO 20009G19KT 10SM FEW038 SCT048 14/08 A2965 RMK AO2 PK WND 22027/1322 SLP030 T01440078
Loading
Personal Weather Stations






























Interactive Weather Map New forecast layout! Learn more

10-Day Weather Forecast

Advertisements
Track Severe Weather on mobile